sensor_id;sensor_type;location;lat;lon;timestamp;P1;durP1;ratioP1;P2;durP2;ratioP2
64795;SDS011;51229;51.980;6.722;2022-12-24T00:01:17;17.15;;;3.25;;
64795;SDS011;51229;51.980;6.722;2022-12-24T00:03:43;20.15;;;3.28;;
64795;SDS011;51229;51.980;6.722;2022-12-24T00:06:19;17.13;;;3.75;;
64795;SDS011;51229;51.980;6.722;2022-12-24T00:08:48;10.68;;;2.22;;
64795;SDS011;51229;51.980;6.722;2022-12-24T00:11:15;13.43;;;2.60;;
64795;SDS011;51229;51.980;6.722;2022-12-24T00:13:41;13.10;;;2.25;;
64795;SDS011;51229;51.980;6.722;2022-12-24T00:16:06;15.48;;;2.80;;
64795;SDS011;51229;51.980;6.722;2022-12-24T00:18:35;17.08;;;2.80;;
64795;SDS011;51229;51.980;6.722;2022-12-24T00:21:14;13.25;;;2.78;;
64795;SDS011;51229;51.980;6.722;2022-12-24T00:23:39;19.40;;;3.30;;
64795;SDS011;51229;51.980;6.722;2022-12-24T00:26:05;18.20;;;2.97;;
64795;SDS011;51229;51.980;6.722;2022-12-24T00:28:31;18.00;;;3.33;;
64795;SDS011;51229;51.980;6.722;2022-12-24T00:30:56;18.20;;;3.00;;
64795;SDS011;51229;51.980;6.722;2022-12-24T00:33:22;18.38;;;3.50;;
64795;SDS011;51229;51.980;6.722;2022-12-24T00:35:49;21.42;;;3.13;;
64795;SDS011;51229;51.980;6.722;2022-12-24T00:38:15;9.70;;;2.35;;
64795;SDS011;51229;51.980;6.722;2022-12-24T00:40:41;21.63;;;2.88;;
64795;SDS011;51229;51.980;6.722;2022-12-24T00:43:06;14.23;;;2.60;;
64795;SDS011;51229;51.980;6.722;2022-12-24T00:45:32;13.55;;;2.40;;
64795;SDS011;51229;51.980;6.722;2022-12-24T00:47:58;16.15;;;3.28;;
64795;SDS011;51229;51.980;6.722;2022-12-24T00:50:23;14.55;;;3.05;;
64795;SDS011;51229;51.980;6.722;2022-12-24T00:52:49;17.98;;;3.10;;
64795;SDS011;51229;51.980;6.722;2022-12-24T00:55:15;13.70;;;2.88;;
64795;SDS011;51229;51.980;6.722;2022-12-24T00:57:40;19.08;;;3.53;;
64795;SDS011;51229;51.980;6.722;2022-12-24T01:00:06;21.17;;;2.90;;
64795;SDS011;51229;51.980;6.722;2022-12-24T01:02:33;11.63;;;2.15;;
64795;SDS011;51229;51.980;6.722;2022-12-24T01:04:58;17.35;;;3.30;;
64795;SDS011;51229;51.980;6.722;2022-12-24T01:07:36;20.70;;;3.70;;
64795;SDS011;51229;51.980;6.722;2022-12-24T01:10:04;15.55;;;2.70;;
64795;SDS011;51229;51.980;6.722;2022-12-24T01:12:30;21.13;;;2.92;;
64795;SDS011;51229;51.980;6.722;2022-12-24T01:14:57;14.82;;;2.53;;
64795;SDS011;51229;51.980;6.722;2022-12-24T01:17:22;9.00;;;1.73;;
64795;SDS011;51229;51.980;6.722;2022-12-24T01:19:48;17.30;;;2.83;;
64795;SDS011;51229;51.980;6.722;2022-12-24T01:22:14;8.95;;;2.05;;
64795;SDS011;51229;51.980;6.722;2022-12-24T01:24:40;19.10;;;2.85;;
64795;SDS011;51229;51.980;6.722;2022-12-24T01:27:06;16.95;;;3.00;;
64795;SDS011;51229;51.980;6.722;2022-12-24T01:29:32;22.85;;;3.65;;
64795;SDS011;51229;51.980;6.722;2022-12-24T01:31:58;15.50;;;2.83;;
64795;SDS011;51229;51.980;6.722;2022-12-24T01:34:23;16.42;;;2.92;;
64795;SDS011;51229;51.980;6.722;2022-12-24T01:36:49;19.17;;;3.00;;
64795;SDS011;51229;51.980;6.722;2022-12-24T01:39:14;13.13;;;2.30;;
64795;SDS011;51229;51.980;6.722;2022-12-24T01:41:40;25.65;;;4.03;;
64795;SDS011;51229;51.980;6.722;2022-12-24T01:44:26;14.52;;;2.50;;
64795;SDS011;51229;51.980;6.722;2022-12-24T01:47:02;15.35;;;2.75;;
64795;SDS011;51229;51.980;6.722;2022-12-24T01:49:51;21.80;;;3.75;;
64795;SDS011;51229;51.980;6.722;2022-12-24T01:52:21;20.02;;;4.00;;
64795;SDS011;51229;51.980;6.722;2022-12-24T01:54:51;15.52;;;3.30;;
64795;SDS011;51229;51.980;6.722;2022-12-24T01:57:23;19.90;;;3.50;;
64795;SDS011;51229;51.980;6.722;2022-12-24T01:59:54;26.33;;;3.55;;
64795;SDS011;51229;51.980;6.722;2022-12-24T02:02:24;17.50;;;3.17;;
64795;SDS011;51229;51.980;6.722;2022-12-24T02:04:56;17.90;;;3.10;;
64795;SDS011;51229;51.980;6.722;2022-12-24T02:07:26;17.20;;;2.78;;
64795;SDS011;51229;51.980;6.722;2022-12-24T02:09:53;16.27;;;3.63;;
64795;SDS011;51229;51.980;6.722;2022-12-24T02:12:22;19.88;;;2.78;;
64795;SDS011;51229;51.980;6.722;2022-12-24T02:14:49;15.98;;;3.00;;
64795;SDS011;51229;51.980;6.722;2022-12-24T02:17:17;21.00;;;3.83;;
64795;SDS011;51229;51.980;6.722;2022-12-24T02:32:42;20.13;;;3.50;;
64795;SDS011;51229;51.980;6.722;2022-12-24T02:35:20;25.80;;;4.18;;
64795;SDS011;51229;51.980;6.722;2022-12-24T02:40:56;20.23;;;3.10;;
64795;SDS011;51229;51.980;6.722;2022-12-24T02:43:45;23.65;;;3.20;;
64795;SDS011;51229;51.980;6.722;2022-12-24T02:46:17;28.02;;;4.25;;
64795;SDS011;51229;51.980;6.722;2022-12-24T02:48:46;23.17;;;3.10;;
64795;SDS011;51229;51.980;6.722;2022-12-24T02:51:13;22.42;;;3.28;;
64795;SDS011;51229;51.980;6.722;2022-12-24T02:53:39;20.83;;;3.70;;
64795;SDS011;51229;51.980;6.722;2022-12-24T02:58:43;23.13;;;3.30;;
64795;SDS011;51229;51.980;6.722;2022-12-24T03:04:30;22.77;;;3.55;;
64795;SDS011;51229;51.980;6.722;2022-12-24T03:07:06;23.70;;;3.30;;
64795;SDS011;51229;51.980;6.722;2022-12-24T03:09:46;21.58;;;3.50;;
64795;SDS011;51229;51.980;6.722;2022-12-24T03:12:23;13.82;;;3.17;;
64795;SDS011;51229;51.980;6.722;2022-12-24T03:14:54;18.48;;;3.75;;
64795;SDS011;51229;51.980;6.722;2022-12-24T03:17:20;19.30;;;3.35;;
64795;SDS011;51229;51.980;6.722;2022-12-24T03:19:46;20.95;;;3.55;;
64795;SDS011;51229;51.980;6.722;2022-12-24T03:22:12;22.75;;;3.55;;
64795;SDS011;51229;51.980;6.722;2022-12-24T03:24:39;18.98;;;3.15;;
64795;SDS011;51229;51.980;6.722;2022-12-24T03:27:05;22.70;;;3.30;;
64795;SDS011;51229;51.980;6.722;2022-12-24T03:29:33;20.55;;;3.17;;
64795;SDS011;51229;51.980;6.722;2022-12-24T03:32:00;21.40;;;3.60;;
64795;SDS011;51229;51.980;6.722;2022-12-24T03:34:27;16.95;;;3.15;;
64795;SDS011;51229;51.980;6.722;2022-12-24T03:36:53;17.40;;;2.65;;
64795;SDS011;51229;51.980;6.722;2022-12-24T03:39:18;15.98;;;3.00;;
64795;SDS011;51229;51.980;6.722;2022-12-24T03:41:44;19.23;;;2.80;;
64795;SDS011;51229;51.980;6.722;2022-12-24T03:44:10;19.58;;;2.58;;
64795;SDS011;51229;51.980;6.722;2022-12-24T03:46:35;19.00;;;3.25;;
64795;SDS011;51229;51.980;6.722;2022-12-24T03:49:01;17.00;;;3.83;;
64795;SDS011;51229;51.980;6.722;2022-12-24T03:51:26;19.67;;;3.45;;
64795;SDS011;51229;51.980;6.722;2022-12-24T03:53:53;21.40;;;4.47;;
64795;SDS011;51229;51.980;6.722;2022-12-24T03:56:20;18.25;;;3.03;;
64795;SDS011;51229;51.980;6.722;2022-12-24T03:58:46;24.98;;;3.28;;
64795;SDS011;51229;51.980;6.722;2022-12-24T04:01:12;16.02;;;3.05;;
64795;SDS011;51229;51.980;6.722;2022-12-24T04:03:38;20.85;;;2.92;;
64795;SDS011;51229;51.980;6.722;2022-12-24T04:06:05;16.48;;;3.30;;
64795;SDS011;51229;51.980;6.722;2022-12-24T04:08:33;14.02;;;3.67;;
64795;SDS011;51229;51.980;6.722;2022-12-24T04:10:59;19.35;;;2.80;;
64795;SDS011;51229;51.980;6.722;2022-12-24T04:13:25;20.90;;;3.53;;
64795;SDS011;51229;51.980;6.722;2022-12-24T04:16:04;17.63;;;2.95;;
64795;SDS011;51229;51.980;6.722;2022-12-24T04:18:35;18.98;;;3.70;;
64795;SDS011;51229;51.980;6.722;2022-12-24T04:21:01;19.20;;;3.50;;
64795;SDS011;51229;51.980;6.722;2022-12-24T04:23:28;23.77;;;4.60;;
64795;SDS011;51229;51.980;6.722;2022-12-24T04:25:55;19.65;;;3.35;;
64795;SDS011;51229;51.980;6.722;2022-12-24T04:28:22;18.00;;;3.63;;
64795;SDS011;51229;51.980;6.722;2022-12-24T04:30:48;17.70;;;4.38;;
64795;SDS011;51229;51.980;6.722;2022-12-24T04:33:14;19.13;;;3.90;;
64795;SDS011;51229;51.980;6.722;2022-12-24T04:35:40;23.73;;;4.18;;
64795;SDS011;51229;51.980;6.722;2022-12-24T04:38:06;25.00;;;5.05;;
64795;SDS011;51229;51.980;6.722;2022-12-24T04:40:33;25.40;;;4.65;;
64795;SDS011;51229;51.980;6.722;2022-12-24T04:42:59;27.33;;;4.38;;
64795;SDS011;51229;51.980;6.722;2022-12-24T04:45:25;13.02;;;3.30;;
64795;SDS011;51229;51.980;6.722;2022-12-24T04:47:50;24.13;;;5.07;;
64795;SDS011;51229;51.980;6.722;2022-12-24T04:50:16;26.05;;;5.00;;
64795;SDS011;51229;51.980;6.722;2022-12-24T04:52:42;20.63;;;5.43;;
64795;SDS011;51229;51.980;6.722;2022-12-24T04:55:07;26.50;;;5.15;;
64795;SDS011;51229;51.980;6.722;2022-12-24T04:57:33;25.00;;;5.60;;
64795;SDS011;51229;51.980;6.722;2022-12-24T05:00:01;20.40;;;4.60;;
64795;SDS011;51229;51.980;6.722;2022-12-24T05:02:31;24.60;;;4.53;;
64795;SDS011;51229;51.980;6.722;2022-12-24T05:04:57;23.92;;;4.90;;
64795;SDS011;51229;51.980;6.722;2022-12-24T05:07:23;28.85;;;7.00;;
64795;SDS011;51229;51.980;6.722;2022-12-24T05:09:48;23.92;;;5.93;;
64795;SDS011;51229;51.980;6.722;2022-12-24T05:12:14;26.10;;;5.97;;
64795;SDS011;51229;51.980;6.722;2022-12-24T05:14:40;26.00;;;5.53;;
64795;SDS011;51229;51.980;6.722;2022-12-24T05:17:06;29.77;;;5.65;;
64795;SDS011;51229;51.980;6.722;2022-12-24T05:19:31;28.38;;;6.35;;
64795;SDS011;51229;51.980;6.722;2022-12-24T05:21:57;30.83;;;6.55;;
64795;SDS011;51229;51.980;6.722;2022-12-24T05:24:41;25.67;;;5.80;;
64795;SDS011;51229;51.980;6.722;2022-12-24T05:27:26;32.83;;;6.30;;
64795;SDS011;51229;51.980;6.722;2022-12-24T05:29:52;24.75;;;5.32;;
64795;SDS011;51229;51.980;6.722;2022-12-24T05:32:17;29.50;;;7.35;;
64795;SDS011;51229;51.980;6.722;2022-12-24T05:34:43;23.30;;;5.57;;
64795;SDS011;51229;51.980;6.722;2022-12-24T05:37:08;26.45;;;6.60;;
64795;SDS011;51229;51.980;6.722;2022-12-24T05:39:34;24.42;;;6.53;;
64795;SDS011;51229;51.980;6.722;2022-12-24T05:42:00;20.55;;;6.00;;
64795;SDS011;51229;51.980;6.722;2022-12-24T05:44:25;28.38;;;6.65;;
64795;SDS011;51229;51.980;6.722;2022-12-24T05:46:51;24.65;;;6.55;;
64795;SDS011;51229;51.980;6.722;2022-12-24T05:49:17;23.58;;;6.82;;
64795;SDS011;51229;51.980;6.722;2022-12-24T05:51:42;29.17;;;6.57;;
64795;SDS011;51229;51.980;6.722;2022-12-24T05:54:08;21.48;;;5.30;;
64795;SDS011;51229;51.980;6.722;2022-12-24T05:56:34;23.02;;;6.32;;
64795;SDS011;51229;51.980;6.722;2022-12-24T05:59:00;38.50;;;8.07;;
64795;SDS011;51229;51.980;6.722;2022-12-24T06:01:25;31.15;;;6.53;;
64795;SDS011;51229;51.980;6.722;2022-12-24T06:03:51;34.75;;;6.68;;
64795;SDS011;51229;51.980;6.722;2022-12-24T06:06:19;25.48;;;5.72;;
64795;SDS011;51229;51.980;6.722;2022-12-24T06:08:48;24.98;;;6.30;;
64795;SDS011;51229;51.980;6.722;2022-12-24T06:11:16;24.08;;;5.57;;
64795;SDS011;51229;51.980;6.722;2022-12-24T06:13:43;22.58;;;6.95;;
64795;SDS011;51229;51.980;6.722;2022-12-24T06:16:13;29.05;;;6.15;;
64795;SDS011;51229;51.980;6.722;2022-12-24T06:18:43;20.42;;;5.78;;
64795;SDS011;51229;51.980;6.722;2022-12-24T06:21:09;28.27;;;6.20;;
64795;SDS011;51229;51.980;6.722;2022-12-24T06:23:36;26.55;;;5.80;;
64795;SDS011;51229;51.980;6.722;2022-12-24T06:26:03;26.75;;;6.13;;
64795;SDS011;51229;51.980;6.722;2022-12-24T06:28:31;26.80;;;6.43;;
64795;SDS011;51229;51.980;6.722;2022-12-24T06:30:59;29.88;;;6.93;;
64795;SDS011;51229;51.980;6.722;2022-12-24T06:33:26;33.67;;;7.70;;
64795;SDS011;51229;51.980;6.722;2022-12-24T06:35:51;25.17;;;6.50;;
64795;SDS011;51229;51.980;6.722;2022-12-24T06:38:17;28.90;;;6.60;;
64795;SDS011;51229;51.980;6.722;2022-12-24T06:40:43;28.33;;;7.18;;
64795;SDS011;51229;51.980;6.722;2022-12-24T06:43:10;30.35;;;7.15;;
64795;SDS011;51229;51.980;6.722;2022-12-24T06:45:37;28.58;;;6.82;;
64795;SDS011;51229;51.980;6.722;2022-12-24T06:48:03;31.08;;;7.47;;
64795;SDS011;51229;51.980;6.722;2022-12-24T06:50:31;27.48;;;7.35;;
64795;SDS011;51229;51.980;6.722;2022-12-24T06:52:57;29.42;;;7.55;;
64795;SDS011;51229;51.980;6.722;2022-12-24T06:55:23;27.42;;;6.53;;
64795;SDS011;51229;51.980;6.722;2022-12-24T06:57:49;36.47;;;7.40;;
64795;SDS011;51229;51.980;6.722;2022-12-24T07:00:15;30.48;;;8.10;;
64795;SDS011;51229;51.980;6.722;2022-12-24T07:02:41;29.05;;;6.97;;
64795;SDS011;51229;51.980;6.722;2022-12-24T07:05:08;33.35;;;7.78;;
64795;SDS011;51229;51.980;6.722;2022-12-24T07:07:42;26.50;;;6.97;;
64795;SDS011;51229;51.980;6.722;2022-12-24T07:10:14;26.90;;;6.95;;
64795;SDS011;51229;51.980;6.722;2022-12-24T07:12:41;20.50;;;6.22;;
64795;SDS011;51229;51.980;6.722;2022-12-24T07:15:07;39.88;;;7.20;;
64795;SDS011;51229;51.980;6.722;2022-12-24T07:17:35;29.50;;;7.65;;
64795;SDS011;51229;51.980;6.722;2022-12-24T07:20:01;29.63;;;7.95;;
64795;SDS011;51229;51.980;6.722;2022-12-24T07:22:28;28.02;;;6.70;;
64795;SDS011;51229;51.980;6.722;2022-12-24T07:24:53;24.52;;;6.28;;
64795;SDS011;51229;51.980;6.722;2022-12-24T07:27:19;26.58;;;6.78;;
64795;SDS011;51229;51.980;6.722;2022-12-24T07:29:44;19.50;;;5.65;;
64795;SDS011;51229;51.980;6.722;2022-12-24T07:32:10;25.10;;;6.03;;
64795;SDS011;51229;51.980;6.722;2022-12-24T07:34:36;32.78;;;6.47;;
64795;SDS011;51229;51.980;6.722;2022-12-24T07:37:03;25.80;;;6.28;;
64795;SDS011;51229;51.980;6.722;2022-12-24T07:39:29;25.17;;;6.03;;
64795;SDS011;51229;51.980;6.722;2022-12-24T07:41:55;26.10;;;7.00;;
64795;SDS011;51229;51.980;6.722;2022-12-24T07:44:20;19.55;;;5.32;;
64795;SDS011;51229;51.980;6.722;2022-12-24T07:46:46;26.05;;;6.18;;
64795;SDS011;51229;51.980;6.722;2022-12-24T07:49:12;21.48;;;6.10;;
64795;SDS011;51229;51.980;6.722;2022-12-24T07:51:37;20.52;;;6.07;;
64795;SDS011;51229;51.980;6.722;2022-12-24T07:54:03;16.48;;;5.20;;
64795;SDS011;51229;51.980;6.722;2022-12-24T07:56:29;22.73;;;6.53;;
64795;SDS011;51229;51.980;6.722;2022-12-24T07:58:56;15.00;;;4.57;;
64795;SDS011;51229;51.980;6.722;2022-12-24T08:01:22;29.73;;;6.63;;
64795;SDS011;51229;51.980;6.722;2022-12-24T08:03:47;21.23;;;5.95;;
64795;SDS011;51229;51.980;6.722;2022-12-24T08:06:15;31.08;;;6.45;;
64795;SDS011;51229;51.980;6.722;2022-12-24T08:08:41;26.75;;;5.75;;
64795;SDS011;51229;51.980;6.722;2022-12-24T08:11:07;22.63;;;5.93;;
64795;SDS011;51229;51.980;6.722;2022-12-24T08:13:33;31.33;;;7.10;;
64795;SDS011;51229;51.980;6.722;2022-12-24T08:15:59;24.73;;;6.10;;
64795;SDS011;51229;51.980;6.722;2022-12-24T08:18:25;25.60;;;5.85;;
64795;SDS011;51229;51.980;6.722;2022-12-24T08:20:51;23.00;;;5.75;;
64795;SDS011;51229;51.980;6.722;2022-12-24T08:23:16;27.13;;;6.15;;
64795;SDS011;51229;51.980;6.722;2022-12-24T08:25:43;25.35;;;6.43;;
64795;SDS011;51229;51.980;6.722;2022-12-24T08:28:10;24.48;;;5.78;;
64795;SDS011;51229;51.980;6.722;2022-12-24T08:30:37;29.70;;;6.40;;
64795;SDS011;51229;51.980;6.722;2022-12-24T08:33:02;22.50;;;6.30;;
64795;SDS011;51229;51.980;6.722;2022-12-24T08:35:28;32.15;;;6.38;;
64795;SDS011;51229;51.980;6.722;2022-12-24T08:37:54;23.92;;;6.57;;
64795;SDS011;51229;51.980;6.722;2022-12-24T08:40:20;31.67;;;7.50;;
64795;SDS011;51229;51.980;6.722;2022-12-24T08:42:46;25.48;;;5.57;;
64795;SDS011;51229;51.980;6.722;2022-12-24T08:45:11;27.45;;;6.65;;
64795;SDS011;51229;51.980;6.722;2022-12-24T08:47:37;29.35;;;5.78;;
64795;SDS011;51229;51.980;6.722;2022-12-24T08:50:04;24.60;;;6.40;;
64795;SDS011;51229;51.980;6.722;2022-12-24T08:52:30;25.73;;;5.57;;
64795;SDS011;51229;51.980;6.722;2022-12-24T08:54:56;26.80;;;6.30;;
64795;SDS011;51229;51.980;6.722;2022-12-24T08:57:21;25.20;;;6.45;;
64795;SDS011;51229;51.980;6.722;2022-12-24T08:59:47;21.90;;;5.90;;
64795;SDS011;51229;51.980;6.722;2022-12-24T09:02:13;29.02;;;6.13;;
64795;SDS011;51229;51.980;6.722;2022-12-24T09:04:38;27.45;;;6.43;;
64795;SDS011;51229;51.980;6.722;2022-12-24T09:07:05;20.92;;;6.68;;
64795;SDS011;51229;51.980;6.722;2022-12-24T09:09:31;21.65;;;5.53;;
64795;SDS011;51229;51.980;6.722;2022-12-24T09:11:56;22.75;;;5.72;;
64795;SDS011;51229;51.980;6.722;2022-12-24T09:14:22;22.55;;;5.57;;
64795;SDS011;51229;51.980;6.722;2022-12-24T09:16:48;29.65;;;6.75;;
64795;SDS011;51229;51.980;6.722;2022-12-24T09:19:13;23.40;;;5.68;;
64795;SDS011;51229;51.980;6.722;2022-12-24T09:21:39;19.88;;;6.18;;
64795;SDS011;51229;51.980;6.722;2022-12-24T09:24:05;23.58;;;6.13;;
64795;SDS011;51229;51.980;6.722;2022-12-24T09:26:31;29.42;;;5.82;;
64795;SDS011;51229;51.980;6.722;2022-12-24T09:28:57;23.35;;;6.20;;
64795;SDS011;51229;51.980;6.722;2022-12-24T09:31:24;26.27;;;6.35;;
64795;SDS011;51229;51.980;6.722;2022-12-24T09:33:51;25.35;;;5.43;;
64795;SDS011;51229;51.980;6.722;2022-12-24T09:36:17;25.98;;;6.00;;
64795;SDS011;51229;51.980;6.722;2022-12-24T09:38:43;22.75;;;5.70;;
64795;SDS011;51229;51.980;6.722;2022-12-24T09:43:39;26.92;;;6.10;;
64795;SDS011;51229;51.980;6.722;2022-12-24T09:46:12;22.85;;;6.88;;
64795;SDS011;51229;51.980;6.722;2022-12-24T09:48:57;24.45;;;6.30;;
64795;SDS011;51229;51.980;6.722;2022-12-24T09:51:30;30.95;;;7.57;;
64795;SDS011;51229;51.980;6.722;2022-12-24T09:54:23;31.40;;;6.78;;
64795;SDS011;51229;51.980;6.722;2022-12-24T09:56:52;22.58;;;5.95;;
64795;SDS011;51229;51.980;6.722;2022-12-24T09:59:25;24.08;;;6.15;;
64795;SDS011;51229;51.980;6.722;2022-12-24T10:01:59;26.40;;;6.97;;
64795;SDS011;51229;51.980;6.722;2022-12-24T10:04:27;28.67;;;7.03;;
64795;SDS011;51229;51.980;6.722;2022-12-24T10:09:36;25.98;;;7.20;;
64795;SDS011;51229;51.980;6.722;2022-12-24T10:29:13;16.13;;;5.57;;
64795;SDS011;51229;51.980;6.722;2022-12-24T10:31:35;27.00;;;7.57;;
64795;SDS011;51229;51.980;6.722;2022-12-24T10:34:12;27.17;;;8.05;;
64795;SDS011;51229;51.980;6.722;2022-12-24T10:36:43;28.25;;;7.45;;
64795;SDS011;51229;51.980;6.722;2022-12-24T10:39:12;28.45;;;7.68;;
64795;SDS011;51229;51.980;6.722;2022-12-24T10:41:49;19.48;;;6.57;;
64795;SDS011;51229;51.980;6.722;2022-12-24T10:44:20;26.00;;;7.38;;
64795;SDS011;51229;51.980;6.722;2022-12-24T10:46:48;35.08;;;9.45;;
64795;SDS011;51229;51.980;6.722;2022-12-24T10:49:59;15.57;;;5.25;;
64795;SDS011;51229;51.980;6.722;2022-12-24T10:52:14;36.33;;;10.35;;
64795;SDS011;51229;51.980;6.722;2022-12-24T10:57:40;36.13;;;9.57;;
64795;SDS011;51229;51.980;6.722;2022-12-24T11:00:06;29.45;;;7.22;;
64795;SDS011;51229;51.980;6.722;2022-12-24T11:02:43;34.95;;;8.63;;
64795;SDS011;51229;51.980;6.722;2022-12-24T11:05:28;17.10;;;5.03;;
64795;SDS011;51229;51.980;6.722;2022-12-24T11:07:59;27.45;;;6.78;;
64795;SDS011;51229;51.980;6.722;2022-12-24T11:10:30;21.70;;;7.05;;
64795;SDS011;51229;51.980;6.722;2022-12-24T11:12:57;27.70;;;7.22;;
64795;SDS011;51229;51.980;6.722;2022-12-24T11:15:27;26.52;;;7.63;;
64795;SDS011;51229;51.980;6.722;2022-12-24T11:18:00;21.50;;;6.50;;
64795;SDS011;51229;51.980;6.722;2022-12-24T11:22:56;28.83;;;7.05;;
64795;SDS011;51229;51.980;6.722;2022-12-24T11:25:26;24.13;;;7.10;;
64795;SDS011;51229;51.980;6.722;2022-12-24T11:27:56;27.73;;;7.03;;
64795;SDS011;51229;51.980;6.722;2022-12-24T11:33:21;25.27;;;6.88;;
64795;SDS011;51229;51.980;6.722;2022-12-24T11:35:48;25.70;;;8.00;;
64795;SDS011;51229;51.980;6.722;2022-12-24T11:38:22;25.35;;;6.95;;
64795;SDS011;51229;51.980;6.722;2022-12-24T11:40:56;28.48;;;7.03;;
64795;SDS011;51229;51.980;6.722;2022-12-24T11:44:12;23.08;;;6.65;;
64795;SDS011;51229;51.980;6.722;2022-12-24T11:46:41;28.13;;;6.55;;
64795;SDS011;51229;51.980;6.722;2022-12-24T11:51:35;23.65;;;6.93;;
64795;SDS011;51229;51.980;6.722;2022-12-24T11:54:15;21.60;;;5.28;;
64795;SDS011;51229;51.980;6.722;2022-12-24T11:56:43;19.42;;;5.75;;
64795;SDS011;51229;51.980;6.722;2022-12-24T11:59:21;21.10;;;5.63;;
64795;SDS011;51229;51.980;6.722;2022-12-24T12:04:48;25.63;;;5.47;;
64795;SDS011;51229;51.980;6.722;2022-12-24T12:07:19;25.42;;;5.57;;
64795;SDS011;51229;51.980;6.722;2022-12-24T12:09:56;23.98;;;5.25;;
64795;SDS011;51229;51.980;6.722;2022-12-24T12:12:27;25.23;;;5.35;;
64795;SDS011;51229;51.980;6.722;2022-12-24T12:14:59;24.65;;;5.65;;
64795;SDS011;51229;51.980;6.722;2022-12-24T12:20:12;15.45;;;4.50;;
64795;SDS011;51229;51.980;6.722;2022-12-24T12:22:48;21.30;;;5.28;;
64795;SDS011;51229;51.980;6.722;2022-12-24T12:25:36;22.95;;;5.13;;
64795;SDS011;51229;51.980;6.722;2022-12-24T12:28:07;23.13;;;5.50;;
64795;SDS011;51229;51.980;6.722;2022-12-24T12:30:42;17.23;;;4.53;;
64795;SDS011;51229;51.980;6.722;2022-12-24T12:36:09;24.73;;;5.47;;
64795;SDS011;51229;51.980;6.722;2022-12-24T12:38:36;14.73;;;4.22;;
64795;SDS011;51229;51.980;6.722;2022-12-24T12:41:10;19.10;;;4.10;;
64795;SDS011;51229;51.980;6.722;2022-12-24T12:46:35;18.98;;;4.18;;
64795;SDS011;51229;51.980;6.722;2022-12-24T12:52:18;23.65;;;4.22;;
64795;SDS011;51229;51.980;6.722;2022-12-24T12:57:43;15.15;;;3.90;;
64795;SDS011;51229;51.980;6.722;2022-12-24T13:00:11;18.60;;;4.53;;
64795;SDS011;51229;51.980;6.722;2022-12-24T13:03:01;19.98;;;3.88;;
64795;SDS011;51229;51.980;6.722;2022-12-24T13:06:06;21.63;;;5.32;;
64795;SDS011;51229;51.980;6.722;2022-12-24T13:17:11;17.63;;;4.45;;
64795;SDS011;51229;51.980;6.722;2022-12-24T13:20:08;15.65;;;3.90;;
64795;SDS011;51229;51.980;6.722;2022-12-24T13:22:48;15.73;;;4.40;;
64795;SDS011;51229;51.980;6.722;2022-12-24T13:25:19;15.48;;;3.90;;
64795;SDS011;51229;51.980;6.722;2022-12-24T13:27:48;19.75;;;5.15;;
64795;SDS011;51229;51.980;6.722;2022-12-24T13:33:03;17.98;;;4.30;;
64795;SDS011;51229;51.980;6.722;2022-12-24T13:35:33;16.08;;;3.38;;
64795;SDS011;51229;51.980;6.722;2022-12-24T13:38:42;17.00;;;3.47;;
64795;SDS011;51229;51.980;6.722;2022-12-24T13:40:51;20.63;;;3.65;;
64795;SDS011;51229;51.980;6.722;2022-12-24T13:43:16;14.43;;;3.70;;
64795;SDS011;51229;51.980;6.722;2022-12-24T13:45:43;13.93;;;3.40;;
64795;SDS011;51229;51.980;6.722;2022-12-24T13:50:48;12.48;;;2.92;;
64795;SDS011;51229;51.980;6.722;2022-12-24T13:55:51;13.68;;;3.13;;
64795;SDS011;51229;51.980;6.722;2022-12-24T13:58:20;14.40;;;3.42;;
64795;SDS011;51229;51.980;6.722;2022-12-24T14:00:58;17.40;;;3.55;;
64795;SDS011;51229;51.980;6.722;2022-12-24T14:03:28;16.42;;;4.70;;
64795;SDS011;51229;51.980;6.722;2022-12-24T14:06:09;13.35;;;3.65;;
64795;SDS011;51229;51.980;6.722;2022-12-24T14:08:47;21.15;;;4.05;;
64795;SDS011;51229;51.980;6.722;2022-12-24T14:11:17;18.98;;;4.25;;
64795;SDS011;51229;51.980;6.722;2022-12-24T14:16:24;21.23;;;5.20;;
64795;SDS011;51229;51.980;6.722;2022-12-24T14:19:10;16.17;;;4.18;;
64795;SDS011;51229;51.980;6.722;2022-12-24T14:22:03;16.45;;;4.00;;
64795;SDS011;51229;51.980;6.722;2022-12-24T14:24:45;19.05;;;4.68;;
64795;SDS011;51229;51.980;6.722;2022-12-24T14:27:20;14.23;;;4.07;;
64795;SDS011;51229;51.980;6.722;2022-12-24T14:29:57;18.33;;;4.38;;
64795;SDS011;51229;51.980;6.722;2022-12-24T14:32:33;20.67;;;4.03;;
64795;SDS011;51229;51.980;6.722;2022-12-24T14:37:38;18.23;;;4.40;;
64795;SDS011;51229;51.980;6.722;2022-12-24T14:40:05;18.42;;;4.13;;
64795;SDS011;51229;51.980;6.722;2022-12-24T14:42:52;16.80;;;4.22;;
64795;SDS011;51229;51.980;6.722;2022-12-24T14:45:25;18.52;;;4.38;;
64795;SDS011;51229;51.980;6.722;2022-12-24T14:48:00;17.33;;;3.72;;
64795;SDS011;51229;51.980;6.722;2022-12-24T14:53:27;18.33;;;4.00;;
64795;SDS011;51229;51.980;6.722;2022-12-24T14:56:14;22.13;;;4.30;;
64795;SDS011;51229;51.980;6.722;2022-12-24T14:58:43;19.05;;;3.97;;
64795;SDS011;51229;51.980;6.722;2022-12-24T15:01:17;13.73;;;4.63;;
64795;SDS011;51229;51.980;6.722;2022-12-24T15:06:45;15.35;;;4.50;;
64795;SDS011;51229;51.980;6.722;2022-12-24T15:09:23;15.95;;;4.32;;
64795;SDS011;51229;51.980;6.722;2022-12-24T15:11:52;16.50;;;4.55;;
64795;SDS011;51229;51.980;6.722;2022-12-24T15:14:20;16.83;;;4.68;;
64795;SDS011;51229;51.980;6.722;2022-12-24T15:21:52;12.15;;;3.90;;
64795;SDS011;51229;51.980;6.722;2022-12-24T15:24:28;15.48;;;3.80;;
64795;SDS011;51229;51.980;6.722;2022-12-24T15:26:56;20.00;;;4.18;;
64795;SDS011;51229;51.980;6.722;2022-12-24T15:29:24;14.88;;;3.83;;
64795;SDS011;51229;51.980;6.722;2022-12-24T15:31:52;17.95;;;4.57;;
64795;SDS011;51229;51.980;6.722;2022-12-24T15:37:04;17.23;;;4.30;;
64795;SDS011;51229;51.980;6.722;2022-12-24T15:40:06;15.52;;;4.47;;
64795;SDS011;51229;51.980;6.722;2022-12-24T15:45:43;19.65;;;5.00;;
64795;SDS011;51229;51.980;6.722;2022-12-24T15:47:54;18.50;;;4.68;;
64795;SDS011;51229;51.980;6.722;2022-12-24T15:50:30;19.75;;;5.28;;
64795;SDS011;51229;51.980;6.722;2022-12-24T15:53:10;19.92;;;4.82;;
64795;SDS011;51229;51.980;6.722;2022-12-24T15:55:45;19.38;;;5.80;;
64795;SDS011;51229;51.980;6.722;2022-12-24T15:58:15;21.83;;;6.03;;
64795;SDS011;51229;51.980;6.722;2022-12-24T16:01:00;18.67;;;5.20;;
64795;SDS011;51229;51.980;6.722;2022-12-24T16:03:40;13.98;;;4.70;;
64795;SDS011;51229;51.980;6.722;2022-12-24T16:06:18;20.35;;;5.30;;
64795;SDS011;51229;51.980;6.722;2022-12-24T16:08:45;15.95;;;5.85;;
64795;SDS011;51229;51.980;6.722;2022-12-24T16:16:42;23.55;;;7.55;;
64795;SDS011;51229;51.980;6.722;2022-12-24T16:19:26;25.43;;;7.97;;
64795;SDS011;51229;51.980;6.722;2022-12-24T16:21:56;19.95;;;6.68;;
64795;SDS011;51229;51.980;6.722;2022-12-24T16:24:25;24.40;;;10.02;;
64795;SDS011;51229;51.980;6.722;2022-12-24T16:26:53;21.27;;;10.70;;
64795;SDS011;51229;51.980;6.722;2022-12-24T16:29:19;27.77;;;11.75;;
64795;SDS011;51229;51.980;6.722;2022-12-24T16:31:56;25.42;;;10.45;;
64795;SDS011;51229;51.980;6.722;2022-12-24T16:34:23;22.08;;;11.73;;
64795;SDS011;51229;51.980;6.722;2022-12-24T16:36:51;26.80;;;12.05;;
64795;SDS011;51229;51.980;6.722;2022-12-24T16:39:21;19.00;;;9.02;;
64795;SDS011;51229;51.980;6.722;2022-12-24T16:41:52;30.60;;;11.05;;
64795;SDS011;51229;51.980;6.722;2022-12-24T16:44:38;31.83;;;12.70;;